M I D A S
Marine Information and Data Acquisition System
Tripno 2213 of the Zeeleeuw from 2011-11-07 06:15:27 to 2011-11-07 18:42:37
Back to CruiseResearch ActivitiesStationsMapUnderway DataData graphs

EquipmentUnitsComment
TimeDGPSUTC
LatitudeDGPSDM.mWGS84
LongitudeDGPSDM.mWGS84
HeadingGyrodeg 
SOGDGPSknotsSpeed over ground
COGDGPSdegCourse over ground
DepthEcho soundermeters200 kHz
Missing or incorrect values are displayed as -999
Navigation data collected by the RV Zeeleeuw from 2011-11-07 06:05:50 to 2011-11-07 18:51:56
                                                                                    Next 1000 lines
Time Latitude Longitude Heading SOG COG Depth
2011-11-07 06:06:01 51°13.634 2°56.019 118.8 0.1 174 7.5
2011-11-07 06:06:05 51°13.634 2°56.019 117.7 0.1 171 7.6
2011-11-07 06:06:10 51°13.634 2°56.019 116.3 0.1 183 5.7
2011-11-07 06:06:15 51°13.634 2°56.018 115 0.1 190 7.6
2011-11-07 06:06:21 51°13.634 2°56.018 113.5 0.1 189 7.7
2011-11-07 06:06:25 51°13.634 2°56.018 112.6 0.1 201 7.5
2011-11-07 06:06:30 51°13.634 2°56.018 111.2 0.1 209 7.5
2011-11-07 06:06:36 51°13.633 2°56.018 109.8 0.1 208 7.6
2011-11-07 06:06:41 51°13.633 2°56.018 108.2 0.1 202 7.6
2011-11-07 06:06:45 51°13.633 2°56.018 107 0.1 208 7.5
2011-11-07 06:06:51 51°13.633 2°56.018 105.7 0.1 204 7.5
2011-11-07 06:06:55 51°13.633 2°56.018 104.6 0.1 255 7.5
2011-11-07 06:07:01 51°13.633 2°56.016 103.6 0.5 278 7.4
2011-11-07 06:07:05 51°13.633 2°56.015 103 0.9 285 7.3
2011-11-07 06:07:11 51°13.634 2°56.011 102.6 1.6 282 7.5
2011-11-07 06:07:16 51°13.635 2°56.006 102.6 2.2 285 7.6
2011-11-07 06:07:21 51°13.636 2°56.001 103.1 2.7 284 -999
2011-11-07 06:07:26 51°13.637 2°55.994 103.8 3.1 285 -999
2011-11-07 06:07:33 51°13.639 2°55.983 104.5 3.7 288 -999
2011-11-07 06:07:38 51°13.641 2°55.975 105.3 4 287 -999
2011-11-07 06:07:44 51°13.643 2°55.964 105.6 4.3 288 -999
2011-11-07 06:07:49 51°13.645 2°55.954 106.1 4.3 287 -999
2011-11-07 06:07:54 51°13.647 2°55.945 106.7 4.3 287 -999
2011-11-07 06:07:59 51°13.648 2°55.936 107.2 4.4 287 -999
2011-11-07 06:08:03 51°13.65 2°55.929 108.5 4.3 289 -999
2011-11-07 06:08:09 51°13.652 2°55.918 110.4 4.4 290 -999
2011-11-07 06:08:14 51°13.655 2°55.908 112.7 4.6 292 -999
2011-11-07 06:08:19 51°13.658 2°55.899 114.7 4.7 295 -999
2011-11-07 06:08:24 51°13.66 2°55.889 116.6 4.8 296 -999
2011-11-07 06:08:29 51°13.664 2°55.88 118.4 5 298 -999
2011-11-07 06:08:34 51°13.667 2°55.87 120.2 5.1 300 -999
2011-11-07 06:08:39 51°13.671 2°55.86 121.6 5.3 301 -999
2011-11-07 06:08:44 51°13.675 2°55.85 123.1 5.4 303 -999
2011-11-07 06:08:49 51°13.68 2°55.84 124.8 5.5 305 -999
2011-11-07 06:08:54 51°13.684 2°55.83 126.2 5.6 306 -999
2011-11-07 06:08:59 51°13.689 2°55.82 127.6 5.7 308 -999
2011-11-07 06:09:04 51°13.694 2°55.811 129 5.7 309 -999
2011-11-07 06:09:09 51°13.699 2°55.801 130.2 5.7 310 -999
2011-11-07 06:09:14 51°13.704 2°55.791 130.7 5.7 311 -999
2011-11-07 06:09:18 51°13.708 2°55.784 131 5.7 311 -999
2011-11-07 06:09:23 51°13.714 2°55.774 131.3 5.7 312 -999
2011-11-07 06:09:29 51°13.72 2°55.763 131.9 5.7 311 -999
2011-11-07 06:09:34 51°13.725 2°55.753 132.7 5.7 313 -999
2011-11-07 06:09:39 51°13.73 2°55.744 133.6 5.6 312 -999
2011-11-07 06:09:44 51°13.736 2°55.735 134.4 5.6 314 -999
2011-11-07 06:09:49 51°13.741 2°55.726 135.8 5.6 314 -999
2011-11-07 06:09:54 51°13.747 2°55.718 138 5.4 317 -999
2011-11-07 06:09:59 51°13.752 2°55.71 140.6 5.5 318 -999
2011-11-07 06:10:04 51°13.758 2°55.703 143 5.5 322 -999
2011-11-07 06:10:09 51°13.764 2°55.696 144.9 5.4 324 -999
2011-11-07 06:10:14 51°13.771 2°55.689 147.5 5.4 326 -999
2011-11-07 06:10:19 51°13.777 2°55.683 149.9 5.3 327 -999
2011-11-07 06:10:24 51°13.783 2°55.677 151.5 5.1 330 -999
2011-11-07 06:10:29 51°13.789 2°55.671 153 5.2 330 -999
2011-11-07 06:10:34 51°13.795 2°55.666 154.4 5.2 332 -999
2011-11-07 06:10:39 51°13.802 2°55.661 156.3 5.1 335 -999
2011-11-07 06:10:44 51°13.808 2°55.657 158.1 5 337 -999
2011-11-07 06:10:49 51°13.815 2°55.653 159.7 5 338 -999
2011-11-07 06:10:54 51°13.821 2°55.649 160.8 5 339 -999
2011-11-07 06:10:59 51°13.827 2°55.645 162.2 5 340 -999
2011-11-07 06:11:04 51°13.834 2°55.641 163.4 5.1 342 -999
2011-11-07 06:11:09 51°13.841 2°55.638 164.8 5.1 343 -999
2011-11-07 06:11:14 51°13.848 2°55.635 166.8 5.2 345 -999
2011-11-07 06:11:19 51°13.855 2°55.632 168.7 5.2 346 -999
2011-11-07 06:11:24 51°13.862 2°55.631 170.4 5.2 350 -999
2011-11-07 06:11:29 51°13.869 2°55.629 172.9 5.2 351 -999
2011-11-07 06:11:34 51°13.876 2°55.627 175.2 5.2 353 -999
2011-11-07 06:11:39 51°13.883 2°55.626 177 5.2 356 -999
2011-11-07 06:11:44 51°13.89 2°55.626 179.6 5 358 -999
2011-11-07 06:11:49 51°13.897 2°55.626 182.8 4.9 -999 -999
2011-11-07 06:11:54 51°13.904 2°55.626 185.3 4.8 3 -999
2011-11-07 06:11:59 51°13.91 2°55.627 187.8 4.7 4 -999
2011-11-07 06:12:04 51°13.916 2°55.629 189.9 4.5 7 -999
2011-11-07 06:12:09 51°13.923 2°55.63 192.5 4.5 9 -999
2011-11-07 06:12:14 51°13.928 2°55.632 195.6 4.3 12 11.4
2011-11-07 06:12:19 51°13.934 2°55.635 197.9 4.1 15 11.6
2011-11-07 06:12:24 51°13.939 2°55.637 200.5 4 17 11.5
2011-11-07 06:12:29 51°13.944 2°55.64 202.9 3.8 19 -999
2011-11-07 06:12:34 51°13.949 2°55.643 205.3 3.7 22 -999
2011-11-07 06:12:40 51°13.954 2°55.647 207.7 3.5 23 11.5
2011-11-07 06:12:43 51°13.957 2°55.648 209.1 3.4 24 12.1
2011-11-07 06:12:49 51°13.961 2°55.652 210.6 2.9 26 11.7
2011-11-07 06:12:54 51°13.964 2°55.654 212.6 2.2 25 11.5
2011-11-07 06:12:59 51°13.965 2°55.655 215.2 1.4 24 11.6
2011-11-07 06:13:04 51°13.966 2°55.655 218.9 0.7 9 11.7
2011-11-07 06:13:08 51°13.966 2°55.654 223.9 0.5 316 11.7
2011-11-07 06:13:13 51°13.966 2°55.653 229.9 0.6 278 11.8
2011-11-07 06:13:18 51°13.966 2°55.65 236.3 1 267 11.8
2011-11-07 06:13:23 51°13.966 2°55.647 243.4 1.4 266 11.7
2011-11-07 06:13:28 51°13.966 2°55.643 250.5 1.7 269 11.3
2011-11-07 06:13:32 51°13.966 2°55.64 257.6 2.1 273 11.3
2011-11-07 06:13:37 51°13.966 2°55.635 264.5 2.3 279 11.4
2011-11-07 06:13:42 51°13.967 2°55.629 271.5 2.6 283 11.3
2011-11-07 06:13:47 51°13.968 2°55.623 278.6 2.9 288 11.6
2011-11-07 06:13:52 51°13.97 2°55.617 284.9 3.2 291 11.7
2011-11-07 06:13:57 51°13.972 2°55.61 290.4 3.6 296 11.7
2011-11-07 06:14:02 51°13.974 2°55.602 295 4 297 11.5
2011-11-07 06:14:07 51°13.978 2°55.593 298.9 4.4 303 11.7
2011-11-07 06:14:13 51°13.983 2°55.583 302.9 4.8 306 11.5
2011-11-07 06:14:17 51°13.986 2°55.576 305.9 5.1 307 11.3
2011-11-07 06:14:22 51°13.991 2°55.566 308.2 5.5 309 11.6
2011-11-07 06:14:27 51°13.997 2°55.556 309.8 6 311 11.6
2011-11-07 06:14:32 51°14.003 2°55.545 311.7 6.5 312 11.4
2011-11-07 06:14:37 51°14.009 2°55.534 312.7 6.9 313 11.3
2011-11-07 06:14:41 51°14.015 2°55.525 314.1 7.3 315 11.8
2011-11-07 06:14:46 51°14.023 2°55.515 316.1 7.6 319 11.8
2011-11-07 06:14:51 51°14.032 2°55.503 319.6 7.9 321 11.3
2011-11-07 06:14:56 51°14.041 2°55.493 322.9 8.1 325 11.5
2011-11-07 06:15:01 51°14.05 2°55.483 325.7 8.3 326 12.2
2011-11-07 06:15:05 51°14.058 2°55.475 327.5 8.5 329 11.4
2011-11-07 06:15:10 51°14.069 2°55.465 329.4 8.7 329 11.2
2011-11-07 06:15:15 51°14.08 2°55.456 331 8.9 331 11.1
2011-11-07 06:15:21 51°14.093 2°55.445 332.2 9.1 332 11.1
2011-11-07 06:15:25 51°14.102 2°55.437 332.8 9.2 332 11.2
2011-11-07 06:15:30 51°14.114 2°55.428 334 9.3 334 11
2011-11-07 06:15:35 51°14.125 2°55.418 334 9.4 331 10.9
2011-11-07 06:15:41 51°14.139 2°55.406 332.4 9.6 332 11.1
2011-11-07 06:15:46 51°14.151 2°55.396 332.5 9.6 332 -999
2011-11-07 06:15:51 51°14.163 2°55.387 333.3 9.5 333 11.1
2011-11-07 06:15:58 51°14.179 2°55.373 333.6 9.6 332 -999
2011-11-07 06:16:02 51°14.189 2°55.365 333.5 9.6 332 -999
2011-11-07 06:16:08 51°14.203 2°55.353 333.4 9.7 332 10.9
2011-11-07 06:16:14 51°14.218 2°55.341 333.2 9.7 333 -999
2011-11-07 06:16:19 51°14.229 2°55.331 333.6 9.7 333 -999
2011-11-07 06:16:24 51°14.241 2°55.321 333.9 9.7 332 -999
2011-11-07 06:16:29 51°14.253 2°55.311 334 9.7 331 -999
2011-11-07 06:16:34 51°14.264 2°55.3 332.3 9.5 329 11.1
2011-11-07 06:16:39 51°14.275 2°55.288 329.9 9.6 327 -999
2011-11-07 06:16:44 51°14.286 2°55.276 328.6 9.7 326 10.7
2011-11-07 06:16:49 51°14.297 2°55.265 327.9 9.6 326 10.6
2011-11-07 06:16:54 51°14.308 2°55.252 327.4 9.7 325 11.2
2011-11-07 06:16:59 51°14.319 2°55.239 326.7 9.7 324 -999
2011-11-07 06:17:04 51°14.33 2°55.227 325.3 9.7 323 11
2011-11-07 06:17:09 51°14.341 2°55.214 324.8 9.8 323 10.8
2011-11-07 06:17:14 51°14.352 2°55.201 324.6 9.8 323 10.7
2011-11-07 06:17:19 51°14.362 2°55.188 324.1 9.7 322 -999
2011-11-07 06:17:24 51°14.373 2°55.175 323.1 9.7 323 10.2
2011-11-07 06:17:29 51°14.384 2°55.162 323.1 9.7 325 10.3
2011-11-07 06:17:34 51°14.394 2°55.151 324.9 9.3 327 10.2
2011-11-07 06:17:38 51°14.403 2°55.141 326.7 9 325 11.6
2011-11-07 06:17:43 51°14.413 2°55.13 327.4 9 325 -999
2011-11-07 06:17:48 51°14.423 2°55.118 326.8 9.1 324 11.3
2011-11-07 06:17:53 51°14.433 2°55.106 326 9.1 323 10.6
2011-11-07 06:17:58 51°14.443 2°55.093 325.2 9.3 322 10.3
2011-11-07 06:18:03 51°14.454 2°55.081 323.8 9.4 324 10.6
2011-11-07 06:18:07 51°14.462 2°55.072 324.5 9.5 324 11.6
2011-11-07 06:18:13 51°14.475 2°55.057 325.4 9.6 324 11.9
2011-11-07 06:18:18 51°14.485 2°55.045 325.5 9.3 324 12.5
2011-11-07 06:18:24 51°14.498 2°55.031 326.3 9.5 325 -999
2011-11-07 06:18:28 51°14.506 2°55.02 326.4 9.6 324 11.4
2011-11-07 06:18:33 51°14.516 2°55.006 325.9 9.3 317 12.5
2011-11-07 06:18:38 51°14.525 2°54.99 322.5 9.6 311 12.1
2011-11-07 06:18:43 51°14.533 2°54.972 318 10 306 12.2
2011-11-07 06:18:48 51°14.541 2°54.954 315.2 10.3 308 11.9
2011-11-07 06:18:53 51°14.55 2°54.936 314.6 10.6 310 12
2011-11-07 06:18:57 51°14.558 2°54.923 318 10.6 314 11.4
2011-11-07 06:19:02 51°14.568 2°54.906 321.1 10.3 315 12.3
2011-11-07 06:19:07 51°14.579 2°54.891 322.4 10.4 317 12.6
2011-11-07 06:19:12 51°14.59 2°54.875 324.9 10.6 319 12
2011-11-07 06:19:17 51°14.601 2°54.86 325.7 10.7 319 11.6
2011-11-07 06:19:23 51°14.615 2°54.84 326.7 10.9 319 11.1
2011-11-07 06:19:28 51°14.626 2°54.825 326.7 11 319 11.6
2011-11-07 06:19:33 51°14.638 2°54.812 327.9 10.4 324 12.5
2011-11-07 06:19:38 51°14.649 2°54.798 330.9 10.2 322 -999
2011-11-07 06:19:43 51°14.662 2°54.785 332.5 10.7 326 11.6
2011-11-07 06:19:48 51°14.674 2°54.771 333.3 10.7 325 11.3
2011-11-07 06:19:53 51°14.686 2°54.758 333.3 11 325 11.6
2011-11-07 06:19:57 51°14.696 2°54.746 332.2 11.3 323 11.3
2011-11-07 06:20:02 51°14.709 2°54.731 331 11.4 325 11.2
2011-11-07 06:20:07 51°14.722 2°54.716 331.4 11.5 323 11.9
2011-11-07 06:20:12 51°14.734 2°54.7 329.9 11.3 321 12.1
2011-11-07 06:20:18 51°14.748 2°54.681 328 11.5 321 11.1
2011-11-07 06:20:22 51°14.758 2°54.668 327 11.4 321 11.4
2011-11-07 06:20:27 51°14.771 2°54.653 327.7 11.3 323 11.9
2011-11-07 06:20:32 51°14.784 2°54.639 329.4 11.6 324 11.1
2011-11-07 06:20:37 51°14.797 2°54.623 330.4 11.4 323 11.6
2011-11-07 06:20:42 51°14.809 2°54.609 329.7 11.2 323 12
2011-11-07 06:20:46 51°14.819 2°54.596 328.6 11.3 321 11.3
2011-11-07 06:20:52 51°14.834 2°54.578 328.7 11.3 324 11.9
2011-11-07 06:20:56 51°14.844 2°54.565 329.2 11.6 322 11.9
2011-11-07 06:21:01 51°14.857 2°54.55 328.8 11.7 325 12.3
2011-11-07 06:21:06 51°14.87 2°54.536 329.9 11.6 327 12.6
2011-11-07 06:21:11 51°14.884 2°54.523 332.9 11.4 329 12.1
2011-11-07 06:21:17 51°14.9 2°54.508 334.5 11.3 330 12.3
2011-11-07 06:21:22 51°14.914 2°54.495 335.4 11.3 329 11.8
2011-11-07 06:21:27 51°14.927 2°54.482 335 11.4 329 11.8
2011-11-07 06:21:31 51°14.938 2°54.472 334.6 11.4 329 12.1
2011-11-07 06:21:36 51°14.952 2°54.459 335.1 11.5 330 12
2011-11-07 06:21:41 51°14.966 2°54.447 337 11.4 331 12.6
2011-11-07 06:21:46 51°14.979 2°54.434 336.5 11.3 328 11.9
2011-11-07 06:21:51 51°14.993 2°54.421 334.9 11.3 329 11.2
2011-11-07 06:21:55 51°15.003 2°54.41 334.4 11.4 328 11.6
2011-11-07 06:22:00 51°15.017 2°54.396 333.6 11.5 327 11.5
2011-11-07 06:22:05 51°15.03 2°54.382 332.9 11.6 326 12
2011-11-07 06:22:11 51°15.046 2°54.364 331.5 11.8 325 11.9
2011-11-07 06:22:16 51°15.059 2°54.349 330 11.6 324 11.2
2011-11-07 06:22:20 51°15.069 2°54.338 330.4 11.5 325 11.8
2011-11-07 06:22:25 51°15.082 2°54.323 330 11.6 324 11.8
2011-11-07 06:22:30 51°15.095 2°54.307 329.6 11.6 321 13
2011-11-07 06:22:36 51°15.109 2°54.287 328.3 11.2 320 12.3
2011-11-07 06:22:40 51°15.119 2°54.274 326.8 11.1 319 11.8
2011-11-07 06:22:45 51°15.131 2°54.258 326 11.3 319 11.8
2011-11-07 06:22:51 51°15.145 2°54.239 325.6 11.5 319 12.5
2011-11-07 06:22:56 51°15.157 2°54.221 325.7 11.3 317 13.1
2011-11-07 06:23:01 51°15.168 2°54.205 324.5 11.3 318 12.3
2011-11-07 06:23:05 51°15.178 2°54.192 324 11.3 320 11.8
2011-11-07 06:23:11 51°15.192 2°54.173 325.7 11.4 320 11.7
2011-11-07 06:23:17 51°15.207 2°54.153 326 11.6 320 12.1
2011-11-07 06:23:22 51°15.219 2°54.136 325.2 11.7 318 11.9
2011-11-07 06:23:26 51°15.229 2°54.122 324.5 11.8 319 11.6
2011-11-07 06:23:31 51°15.241 2°54.105 325 11.7 319 11.9
2011-11-07 06:23:36 51°15.254 2°54.088 325.1 11.8 319 12.1
2011-11-07 06:23:41 51°15.266 2°54.071 324.9 11.7 319 11.6
2011-11-07 06:23:46 51°15.279 2°54.055 325.8 11.6 322 12.2
2011-11-07 06:23:50 51°15.289 2°54.042 327.4 11.6 322 11.7
2011-11-07 06:23:55 51°15.302 2°54.027 328.2 11.6 323 12.3
2011-11-07 06:24:01 51°15.318 2°54.008 329.1 11.8 324 12.6
2011-11-07 06:24:06 51°15.331 2°53.993 330 11.8 325 12.4
2011-11-07 06:24:10 51°15.342 2°53.981 330.3 11.8 324 11.5
2011-11-07 06:24:15 51°15.355 2°53.966 331 11.5 325 11.7
2011-11-07 06:24:21 51°15.37 2°53.949 331.4 11.6 325 12
2011-11-07 06:24:26 51°15.384 2°53.934 331.6 11.7 325 12.5
2011-11-07 06:24:31 51°15.397 2°53.919 331.2 11.7 324 12.1
2011-11-07 06:24:36 51°15.41 2°53.903 330.8 11.8 324 12
2011-11-07 06:24:41 51°15.423 2°53.887 330 11.9 322 12.3
2011-11-07 06:24:46 51°15.436 2°53.871 329.6 11.9 324 12.3
2011-11-07 06:24:51 51°15.449 2°53.856 330.1 12 323 12.2
2011-11-07 06:24:55 51°15.46 2°53.843 330.1 11.9 323 11.7
2011-11-07 06:25:00 51°15.473 2°53.827 329.5 11.6 321 12.5
2011-11-07 06:25:06 51°15.488 2°53.808 328.7 11.8 321 12.8
2011-11-07 06:25:11 51°15.501 2°53.791 327.9 11.9 320 12.8
2011-11-07 06:25:15 51°15.51 2°53.778 327.4 11.8 320 12
2011-11-07 06:25:20 51°15.523 2°53.761 326.8 11.8 320 12.3
2011-11-07 06:25:25 51°15.535 2°53.744 326.5 11.8 320 12.2
2011-11-07 06:25:31 51°15.55 2°53.723 326.8 11.9 319 12.4
2011-11-07 06:25:35 51°15.559 2°53.71 326.4 11.6 317 -999
2011-11-07 06:25:42 51°15.573 2°53.687 324.2 10.7 315 -999
2011-11-07 06:25:47 51°15.585 2°53.67 323.5 11 317 -999
2011-11-07 06:25:52 51°15.595 2°53.653 324.4 10.9 315 11.1
2011-11-07 06:25:57 51°15.606 2°53.636 323.7 11.2 316 12
2011-11-07 06:26:02 51°15.617 2°53.619 322.8 11.1 316 12.8
2011-11-07 06:26:07 51°15.629 2°53.604 324.4 10.7 320 12.4
2011-11-07 06:26:12 51°15.641 2°53.589 326.8 11.1 321 11.5
2011-11-07 06:26:16 51°15.65 2°53.577 328.9 11.1 321 12.2
2011-11-07 06:26:21 51°15.662 2°53.562 330.5 11.2 323 12.1
2011-11-07 06:26:26 51°15.675 2°53.548 330.9 11.2 326 11.8
2011-11-07 06:26:31 51°15.688 2°53.536 333.6 11.1 330 11.6
2011-11-07 06:26:36 51°15.702 2°53.525 337.3 11.2 333 12.2
2011-11-07 06:26:41 51°15.716 2°53.513 339.5 11 333 11.8
2011-11-07 06:26:45 51°15.727 2°53.506 341.2 11 336 12.4
2011-11-07 06:26:51 51°15.744 2°53.494 342.9 11 338 12.8
2011-11-07 06:26:56 51°15.758 2°53.486 345.6 11 339 12.6
2011-11-07 06:27:01 51°15.772 2°53.477 346.6 10.8 339 11.8
2011-11-07 06:27:06 51°15.786 2°53.469 347.7 10.3 339 -999
2011-11-07 06:27:12 51°15.803 2°53.459 348.5 10.6 341 12.7
2011-11-07 06:27:16 51°15.814 2°53.453 348.5 10.5 341 13.4
2011-11-07 06:27:21 51°15.827 2°53.445 349.1 10.6 341 12.7
2011-11-07 06:27:26 51°15.841 2°53.437 348.9 10.8 338 12.6
2011-11-07 06:27:31 51°15.855 2°53.428 348.5 11 338 12.6
2011-11-07 06:27:36 51°15.869 2°53.418 346.5 10.7 335 12.2
2011-11-07 06:27:41 51°15.882 2°53.408 345.2 10.6 337 12.4
2011-11-07 06:27:45 51°15.893 2°53.4 345.6 11 335 12.7
2011-11-07 06:27:51 51°15.91 2°53.388 344.9 11 336 12.9
2011-11-07 06:27:56 51°15.924 2°53.378 345 11.2 335 12.5
2011-11-07 06:28:01 51°15.938 2°53.366 344.1 11.4 335 13.4
2011-11-07 06:28:05 51°15.95 2°53.358 344.1 11.4 336 12.8
2011-11-07 06:28:11 51°15.966 2°53.346 344.3 10.8 335 11.2
2011-11-07 06:28:16 51°15.979 2°53.335 344 10.9 333 12.2
2011-11-07 06:28:21 51°15.993 2°53.325 343.4 11 333 12.2
2011-11-07 06:28:25 51°16.004 2°53.315 342.5 11.1 332 12.5
2011-11-07 06:28:31 51°16.021 2°53.302 342.5 11.1 333 12.4
2011-11-07 06:28:36 51°16.035 2°53.291 342.6 11.2 335 12.6
2011-11-07 06:28:41 51°16.049 2°53.28 343.6 11.2 334 12.2
2011-11-07 06:28:45 51°16.06 2°53.271 343.4 11 333 12.6
2011-11-07 06:28:51 51°16.076 2°53.258 341.9 11.1 332 -999
2011-11-07 06:28:56 51°16.09 2°53.246 341.3 11.1 332 12.7
2011-11-07 06:29:01 51°16.103 2°53.235 341.2 11.1 333 12.3
2011-11-07 06:29:05 51°16.114 2°53.226 341.3 11 334 13.1
2011-11-07 06:29:11 51°16.131 2°53.213 341.5 11.1 333 13
2011-11-07 06:29:15 51°16.141 2°53.205 341.6 10.6 335 12.1
2011-11-07 06:29:21 51°16.157 2°53.194 342.2 10.2 334 11.8
2011-11-07 06:29:26 51°16.17 2°53.184 342.7 10.1 336 12.4
2011-11-07 06:29:31 51°16.183 2°53.174 343 10.4 335 12.4
2011-11-07 06:29:36 51°16.196 2°53.164 342.9 10.5 334 12.1
2011-11-07 06:29:41 51°16.209 2°53.154 342.8 10.6 335 13.1
2011-11-07 06:29:45 51°16.22 2°53.147 342.4 10.7 336 13
2011-11-07 06:29:51 51°16.237 2°53.135 342.3 11 336 13.1
2011-11-07 06:29:56 51°16.251 2°53.125 342.6 11 337 12.9
2011-11-07 06:30:01 51°16.265 2°53.115 342.4 11.1 336 12.6
2011-11-07 06:30:05 51°16.276 2°53.107 342 11.2 335 12.4
2011-11-07 06:30:10 51°16.29 2°53.096 341.6 11 334 11.9
2011-11-07 06:30:16 51°16.306 2°53.083 340.5 11.1 334 12.7
2011-11-07 06:30:21 51°16.32 2°53.072 340.5 11.1 334 12.7
2011-11-07 06:30:25 51°16.331 2°53.063 340 11.2 332 12
2011-11-07 06:30:30 51°16.345 2°53.052 339.7 11.2 334 12.4
2011-11-07 06:30:36 51°16.362 2°53.038 340.1 11.4 332 12.9
2011-11-07 06:30:41 51°16.376 2°53.027 339.8 11.5 333 12.9
2011-11-07 06:30:45 51°16.387 2°53.017 339.2 11.4 331 12.8
2011-11-07 06:30:49 51°16.398 2°53.007 338.8 11.4 331 12.8
2011-11-07 06:30:55 51°16.415 2°52.992 338.2 11.4 331 12
2011-11-07 06:31:01 51°16.43 2°52.977 337.8 11.2 329 12.6
2011-11-07 06:31:05 51°16.441 2°52.967 336.8 11.2 329 12.3
2011-11-07 06:31:11 51°16.457 2°52.952 336.3 11.3 329 12.2
2011-11-07 06:31:15 51°16.468 2°52.942 336.5 11.5 330 12.8
2011-11-07 06:31:21 51°16.484 2°52.926 336.5 11.4 329 12.4
2011-11-07 06:31:25 51°16.495 2°52.916 336.3 11.5 329 12.8
2011-11-07 06:31:31 51°16.512 2°52.901 336.2 11.4 330 13.1
2011-11-07 06:31:36 51°16.525 2°52.888 336.5 11.1 330 12.1
2011-11-07 06:31:41 51°16.538 2°52.877 336.9 11.2 331 11.9
2011-11-07 06:31:45 51°16.549 2°52.868 338.2 11.2 332 12.1
2011-11-07 06:31:51 51°16.566 2°52.853 338.6 11.3 331 12.1
2011-11-07 06:31:56 51°16.579 2°52.84 338.4 11.2 330 11.8
2011-11-07 06:32:01 51°16.593 2°52.829 337.7 11.3 332 12.1
2011-11-07 06:32:05 51°16.604 2°52.819 338.2 11.2 331 11.7
2011-11-07 06:32:11 51°16.621 2°52.806 338.5 11.1 332 12.9
2011-11-07 06:32:16 51°16.634 2°52.794 338.2 11 332 12.4
2011-11-07 06:32:21 51°16.647 2°52.782 338.5 11.1 332 11.8
2011-11-07 06:32:25 51°16.658 2°52.773 339 11.1 332 12
2011-11-07 06:32:30 51°16.672 2°52.762 339.6 10.6 333 10.7
2011-11-07 06:32:36 51°16.688 2°52.749 340.3 10.9 333 11.6
2011-11-07 06:32:41 51°16.701 2°52.739 341 10.6 333 10.4
2011-11-07 06:32:45 51°16.711 2°52.73 340.1 10.3 333 -999
2011-11-07 06:32:51 51°16.725 2°52.719 339.9 9.7 333 11.3
2011-11-07 06:32:57 51°16.74 2°52.707 340.4 10 333 -999
2011-11-07 06:33:01 51°16.75 2°52.698 339.8 10.1 332 10
2011-11-07 06:33:06 51°16.763 2°52.688 340.3 10.3 332 10.3
2011-11-07 06:33:11 51°16.776 2°52.677 339.8 10.5 332 10.2
2011-11-07 06:33:16 51°16.789 2°52.666 339.3 10.7 332 10.9
2011-11-07 06:33:21 51°16.802 2°52.655 340.2 10.7 332 10.4
2011-11-07 06:33:25 51°16.812 2°52.646 339.3 10.9 332 10.6
2011-11-07 06:33:31 51°16.829 2°52.631 339 11 331 10
2011-11-07 06:33:35 51°16.84 2°52.621 338.7 10.9 331 10.1
2011-11-07 06:33:41 51°16.856 2°52.607 339 11 331 10
2011-11-07 06:33:45 51°16.866 2°52.598 338.8 10.8 333 10.6
2011-11-07 06:33:51 51°16.882 2°52.585 339.7 10.9 332 11.1
2011-11-07 06:33:56 51°16.895 2°52.574 340.1 10.8 332 11.2
2011-11-07 06:34:01 51°16.908 2°52.563 340.8 10.6 331 10.2
2011-11-07 06:34:05 51°16.919 2°52.554 340 10.8 331 10.4
2011-11-07 06:34:11 51°16.935 2°52.541 339.5 10.9 334 10.2
2011-11-07 06:34:16 51°16.948 2°52.531 340.3 10.8 335 10.9
2011-11-07 06:34:21 51°16.962 2°52.52 341.2 11 334 10.2
2011-11-07 06:34:25 51°16.972 2°52.511 341.2 11.1 333 11
2011-11-07 06:34:31 51°16.989 2°52.497 340.7 10.9 331 9.8
2011-11-07 06:34:36 51°17.002 2°52.486 339.4 10.8 332 9.7
2011-11-07 06:34:41 51°17.015 2°52.476 339.6 10.6 334 9.3
2011-11-07 06:34:45 51°17.026 2°52.469 342 10.6 338 9.7
2011-11-07 06:34:50 51°17.04 2°52.46 345.3 10.5 338 9.7
2011-11-07 06:34:56 51°17.056 2°52.451 346.5 10.3 339 10.4
2011-11-07 06:35:01 51°17.069 2°52.443 347.3 10.1 340 -999
2011-11-07 06:35:06 51°17.082 2°52.436 347.8 10.1 341 10.4
2011-11-07 06:35:11 51°17.096 2°52.429 349.2 10 343 10
2011-11-07 06:35:16 51°17.109 2°52.422 350.4 10.2 341 9.8
2011-11-07 06:35:21 51°17.122 2°52.415 350.7 10.3 341 11
2011-11-07 06:35:25 51°17.133 2°52.409 350.9 10.2 342 11.6
2011-11-07 06:35:31 51°17.149 2°52.402 350.8 9.9 345 10.4
2011-11-07 06:35:35 51°17.16 2°52.397 351.7 10.1 346 10.5
2011-11-07 06:35:41 51°17.176 2°52.391 353.9 10.2 348 10.4
2011-11-07 06:35:45 51°17.188 2°52.387 355.5 10.2 348 10.6
2011-11-07 06:35:51 51°17.204 2°52.382 355.7 10.3 347 10.4
2011-11-07 06:35:56 51°17.219 2°52.377 355.7 10.4 348 10.8
2011-11-07 06:36:01 51°17.233 2°52.372 355.8 10.4 349 11.6
2011-11-07 06:36:05 51°17.244 2°52.37 356.5 10.2 352 10.9
2011-11-07 06:36:11 51°17.261 2°52.366 358.6 10.3 352 10.7
2011-11-07 06:36:16 51°17.275 2°52.363 358.7 10.3 353 10.2
2011-11-07 06:36:21 51°17.289 2°52.361 359.4 10 354 10
2011-11-07 06:36:25 51°17.3 2°52.359 0.4 9.9 354 11.1
2011-11-07 06:36:31 51°17.316 2°52.357 1.6 10 355 -999
2011-11-07 06:36:36 51°17.33 2°52.355 0.9 9.9 355 11.8
2011-11-07 06:36:41 51°17.344 2°52.353 1.4 10.1 356 11.4
2011-11-07 06:36:45 51°17.355 2°52.353 2.3 10.2 358 11.4
2011-11-07 06:36:50 51°17.37 2°52.352 3.2 10.2 358 10.8
2011-11-07 06:36:56 51°17.387 2°52.351 3.5 10.4 358 11
2011-11-07 06:37:01 51°17.401 2°52.35 2.9 10.5 357 10.8
2011-11-07 06:37:05 51°17.413 2°52.347 2.8 10.6 354 11.4
2011-11-07 06:37:09 51°17.425 2°52.346 1.4 10.7 354 11.4
2011-11-07 06:37:15 51°17.442 2°52.342 0.7 10.8 354 11
2011-11-07 06:37:21 51°17.46 2°52.34 0.6 10.8 354 11
2011-11-07 06:37:25 51°17.472 2°52.337 1.3 10.8 354 11.2
2011-11-07 06:37:31 51°17.49 2°52.334 1 10.8 353 11.3
2011-11-07 06:37:35 51°17.502 2°52.332 0.8 10.8 354 11.4
2011-11-07 06:37:41 51°17.519 2°52.331 1.5 10.5 357 10.9
2011-11-07 06:37:45 51°17.531 2°52.33 3.1 10.6 358 11.2
2011-11-07 06:37:51 51°17.548 2°52.329 3.5 10.3 358 10.5
2011-11-07 06:37:56 51°17.562 2°52.328 2.9 10.1 358 10.3
2011-11-07 06:38:01 51°17.576 2°52.326 3.6 10.1 355 10.3
2011-11-07 06:38:05 51°17.587 2°52.325 2.9 10 356 10.6
2011-11-07 06:38:10 51°17.601 2°52.324 2.3 10.1 357 11.3
2011-11-07 06:38:16 51°17.618 2°52.323 2.6 10.1 357 10.7
2011-11-07 06:38:21 51°17.632 2°52.32 2.3 10.2 354 10.8
2011-11-07 06:38:25 51°17.643 2°52.318 1.9 10.3 354 11.2
2011-11-07 06:38:31 51°17.661 2°52.315 0.6 10.5 354 11
2011-11-07 06:38:35 51°17.672 2°52.313 0.3 10.4 354 10.4
2011-11-07 06:38:41 51°17.69 2°52.311 0.7 10.5 355 11.1
2011-11-07 06:38:45 51°17.701 2°52.309 0.8 10.5 354 11.2
2011-11-07 06:38:51 51°17.719 2°52.308 2 10.5 -999 11.2
2011-11-07 06:38:56 51°17.733 2°52.308 4.5 10.1 -999 10.5
2011-11-07 06:39:01 51°17.746 2°52.309 5.8 9.9 3 9.9
2011-11-07 06:39:05 51°17.757 2°52.31 7.6 9.9 3 11.1
2011-11-07 06:39:11 51°17.775 2°52.312 8.3 10.3 4 11.1
2011-11-07 06:39:16 51°17.789 2°52.314 8.5 10.2 6 11.5
2011-11-07 06:39:21 51°17.802 2°52.317 10.7 10.1 7 10.9
2011-11-07 06:39:25 51°17.814 2°52.319 12.1 10.1 7 11
2011-11-07 06:39:31 51°17.831 2°52.324 13.5 10.3 10 11.3
2011-11-07 06:39:36 51°17.844 2°52.328 15.3 10.3 11 11
2011-11-07 06:39:41 51°17.858 2°52.334 16.1 10.1 15 10.4
2011-11-07 06:39:45 51°17.869 2°52.339 17.6 10.3 16 10.6
2011-11-07 06:39:51 51°17.885 2°52.348 20.6 10.5 19 11.3
2011-11-07 06:39:56 51°17.898 2°52.356 22.2 10.2 21 11.1
2011-11-07 06:40:01 51°17.911 2°52.365 23.5 10 23 10.8
2011-11-07 06:40:05 51°17.921 2°52.373 26 10.1 25 11.2
2011-11-07 06:40:10 51°17.934 2°52.382 27 10.2 25 11.5
2011-11-07 06:40:16 51°17.949 2°52.394 27.7 10.1 25 11.2
2011-11-07 06:40:21 51°17.962 2°52.404 28.6 10.1 27 10.5
2011-11-07 06:40:25 51°17.972 2°52.412 28.5 10.1 26 10.5
2011-11-07 06:40:31 51°17.987 2°52.423 27.2 9.9 26 11
2011-11-07 06:40:35 51°17.997 2°52.431 28.9 10 26 11
2011-11-07 06:40:41 51°18.013 2°52.443 28.7 10.1 26 11.6
2011-11-07 06:40:45 51°18.023 2°52.449 28.1 10.1 25 11.1
2011-11-07 06:40:50 51°18.035 2°52.461 29 9.4 30 9.7
2011-11-07 06:40:56 51°18.048 2°52.473 31.3 9.3 28 -999
2011-11-07 06:41:01 51°18.06 2°52.483 31.9 9.3 28 -999
2011-11-07 06:41:06 51°18.071 2°52.494 31.4 9.3 28 11.8
2011-11-07 06:41:12 51°18.084 2°52.507 30.7 9 35 -999
2011-11-07 06:41:17 51°18.094 2°52.519 34.4 9.2 36 -999
2011-11-07 06:41:22 51°18.105 2°52.53 34.9 9.3 35 11.2
2011-11-07 06:41:26 51°18.113 2°52.54 35.2 9.3 37 10.5
2011-11-07 06:41:31 51°18.124 2°52.554 37.9 9.6 40 11.2
2011-11-07 06:41:36 51°18.134 2°52.569 39.5 9.8 42 10.8
2011-11-07 06:41:41 51°18.143 2°52.585 41.1 9.9 46 11.5
2011-11-07 06:41:45 51°18.151 2°52.599 44.3 10.1 49 11.6
2011-11-07 06:41:50 51°18.16 2°52.616 46.9 10.3 51 11.4
2011-11-07 06:41:55 51°18.168 2°52.634 49.1 10.2 53 10.5
2011-11-07 06:42:01 51°18.178 2°52.657 51.6 10.2 57 11.4
2011-11-07 06:42:05 51°18.184 2°52.673 55.1 10.3 59 10.6
2011-11-07 06:42:11 51°18.192 2°52.696 57.2 10.2 59 10.3
2011-11-07 06:42:15 51°18.197 2°52.713 59.2 10.4 62 11.1
2011-11-07 06:42:21 51°18.205 2°52.738 60.1 10.3 61 10.9
2011-11-07 06:42:25 51°18.21 2°52.755 60.8 10.4 65 11.9
2011-11-07 06:42:31 51°18.219 2°52.778 59.7 10.5 62 11.6
2011-11-07 06:42:36 51°18.225 2°52.799 59.8 10.5 62 11.3
2011-11-07 06:42:41 51°18.232 2°52.819 59.7 10.4 62 11.1
2011-11-07 06:42:45 51°18.237 2°52.836 61.4 10.6 65 10.7
2011-11-07 06:42:51 51°18.245 2°52.861 61.4 10.5 64 10.8
2011-11-07 06:42:56 51°18.251 2°52.882 61.6 10.5 63 10.9
2011-11-07 06:43:01 51°18.258 2°52.903 61.5 10.4 63 11.3
2011-11-07 06:43:05 51°18.263 2°52.919 60.5 10.4 61 11.2
2011-11-07 06:43:11 51°18.272 2°52.943 59.3 10.4 59 11
2011-11-07 06:43:16 51°18.279 2°52.962 58.5 10.2 58 10.8
2011-11-07 06:43:21 51°18.287 2°52.981 56.8 10.1 56 10.6
2011-11-07 06:43:25 51°18.293 2°52.997 56.4 10.2 57 11.4
2011-11-07 06:43:31 51°18.303 2°53.02 54.2 10.5 56 12.3
2011-11-07 06:43:36 51°18.311 2°53.039 53.8 10.5 58 12.4
2011-11-07 06:43:41 51°18.32 2°53.056 54.2 10.2 54 11.1
2011-11-07 06:43:45 51°18.326 2°53.072 54.6 10.3 56 10.9
2011-11-07 06:43:50 51°18.335 2°53.091 54.5 10.3 54 11
2011-11-07 06:43:56 51°18.344 2°53.114 54.7 10.5 54 11.6
2011-11-07 06:44:01 51°18.353 2°53.133 53.7 10.6 56 11.8
2011-11-07 06:44:05 51°18.359 2°53.149 53.9 10.6 56 11.9
2011-11-07 06:44:11 51°18.369 2°53.173 54.5 10.7 58 12.6
2011-11-07 06:44:15 51°18.376 2°53.187 54.4 10.5 54 12.1
2011-11-07 06:44:21 51°18.385 2°53.21 52.7 10.4 55 11.3
2011-11-07 06:44:25 51°18.392 2°53.225 53 10.4 54 11.4
2011-11-07 06:44:31 51°18.403 2°53.247 53.1 10.4 54 11.2
2011-11-07 06:44:36 51°18.411 2°53.266 53.8 10.3 53 10.9
2011-11-07 06:44:41 51°18.419 2°53.286 53.8 10.4 55 11.4
2011-11-07 06:44:45 51°18.426 2°53.301 53.8 10.5 53 11.4
2011-11-07 06:44:50 51°18.434 2°53.319 52.4 10.4 54 11.5
2011-11-07 06:44:56 51°18.445 2°53.341 52.4 10.5 52 11.7
2011-11-07 06:45:01 51°18.454 2°53.359 52 10.6 52 12.4
2011-11-07 06:45:05 51°18.461 2°53.374 51.4 10.6 52 11.2
2011-11-07 06:45:11 51°18.471 2°53.397 52 10.3 54 11.7
2011-11-07 06:45:15 51°18.477 2°53.412 52.8 10.4 54 11.7
2011-11-07 06:45:21 51°18.487 2°53.434 52.7 10.3 53 11.2
2011-11-07 06:45:25 51°18.494 2°53.45 52.9 10.4 56 11.9
2011-11-07 06:45:31 51°18.504 2°53.471 52.2 10.4 54 11.9
2011-11-07 06:45:36 51°18.514 2°53.489 51.8 10.5 51 11.8
2011-11-07 06:45:41 51°18.523 2°53.507 51.2 10.5 50 11.8
2011-11-07 06:45:45 51°18.529 2°53.522 50.4 10.4 53 11.9
2011-11-07 06:45:51 51°18.54 2°53.542 50.4 10 51 10.9
2011-11-07 06:45:56 51°18.548 2°53.559 50.8 9.9 51 11.3
2011-11-07 06:46:01 51°18.557 2°53.577 50.5 10.1 51 12.2
2011-11-07 06:46:05 51°18.564 2°53.59 49.4 10 50 12
2011-11-07 06:46:10 51°18.573 2°53.608 49.4 10.1 52 11.6
2011-11-07 06:46:16 51°18.584 2°53.629 50.7 10.4 50 11.9
2011-11-07 06:46:21 51°18.592 2°53.647 50.1 10.4 52 12
2011-11-07 06:46:25 51°18.6 2°53.66 49.5 10.3 49 12
2011-11-07 06:46:31 51°18.612 2°53.681 49.8 10.3 49 11.6
2011-11-07 06:46:35 51°18.619 2°53.696 49.6 10.5 51 11.3
2011-11-07 06:46:41 51°18.63 2°53.717 50.2 10.5 50 11.7
2011-11-07 06:46:45 51°18.637 2°53.732 49.6 10.4 51 11.7
2011-11-07 06:46:51 51°18.648 2°53.754 50.6 10.5 53 12.1
2011-11-07 06:46:56 51°18.657 2°53.772 51 10.6 53 11.8
2011-11-07 06:47:01 51°18.666 2°53.791 51.1 10.5 54 11.9
2011-11-07 06:47:05 51°18.672 2°53.806 52.6 10.3 55 12.2
2011-11-07 06:47:10 51°18.681 2°53.824 52.7 10.5 55 12.2
2011-11-07 06:47:16 51°18.692 2°53.846 53.2 10.4 50 11.5
2011-11-07 06:47:21 51°18.701 2°53.864 51.5 10.5 52 11.8
2011-11-07 06:47:25 51°18.708 2°53.879 51.7 10.4 52 12.2
2011-11-07 06:47:31 51°18.719 2°53.901 51.6 10.5 53 12.4
2011-11-07 06:47:35 51°18.726 2°53.916 51.8 10.5 53 12
2011-11-07 06:47:41 51°18.737 2°53.938 52 10.6 53 12.4
2011-11-07 06:47:45 51°18.744 2°53.953 52.4 10.5 53 12.2
2011-11-07 06:47:51 51°18.754 2°53.976 52.6 10.6 54 12
2011-11-07 06:47:56 51°18.763 2°53.995 53.1 10.7 54 12.3
2011-11-07 06:48:01 51°18.771 2°54.014 53.7 10.8 54 12.6
2011-11-07 06:48:05 51°18.778 2°54.029 53.5 10.8 54 12.7
2011-11-07 06:48:11 51°18.789 2°54.052 53 10.6 53 12.3
2011-11-07 06:48:16 51°18.797 2°54.071 52.7 10.6 55 12.4
2011-11-07 06:48:21 51°18.805 2°54.09 52.8 10.6 53 12.1
2011-11-07 06:48:25 51°18.812 2°54.105 53 10.7 54 12.3
2011-11-07 06:48:31 51°18.823 2°54.127 52.5 10.6 52 12.2
2011-11-07 06:48:35 51°18.83 2°54.142 52 10.7 54 11.7
2011-11-07 06:48:41 51°18.841 2°54.165 52.8 10.7 53 11.7
2011-11-07 06:48:45 51°18.847 2°54.181 52.4 10.7 55 11.7
2011-11-07 06:48:50 51°18.856 2°54.199 52.1 10.4 54 12
2011-11-07 06:48:55 51°18.865 2°54.218 52.8 10.5 54 12.5
2011-11-07 06:49:01 51°18.876 2°54.24 52 10.5 52 11.4
2011-11-07 06:49:05 51°18.883 2°54.255 51.9 10.6 53 11.9
2011-11-07 06:49:10 51°18.892 2°54.273 51.8 10.6 52 12.5
2011-11-07 06:49:16 51°18.903 2°54.295 50.6 10.6 53 12.7
2011-11-07 06:49:21 51°18.912 2°54.313 50.8 10.7 51 12.5
2011-11-07 06:49:25 51°18.919 2°54.328 50.2 10.5 53 13.2
2011-11-07 06:49:31 51°18.93 2°54.349 50.8 10.4 50 12.4
2011-11-07 06:49:35 51°18.937 2°54.363 50.5 10.4 52 12.5
2011-11-07 06:49:41 51°18.948 2°54.385 49.5 10.4 51 11.8
2011-11-07 06:49:45 51°18.956 2°54.399 49.4 10.5 49 12.1
2011-11-07 06:49:51 51°18.967 2°54.421 49.7 10.7 50 12.7
2011-11-07 06:49:55 51°18.975 2°54.435 48.6 10.6 51 12.3
2011-11-07 06:50:01 51°18.986 2°54.456 49.3 10.5 49 11.9
2011-11-07 06:50:05 51°18.993 2°54.471 49.8 10.6 52 12.4
2011-11-07 06:50:11 51°19.004 2°54.493 49.4 10.8 51 12.7
2011-11-07 06:50:16 51°19.014 2°54.51 49.9 10.6 49 12.2
2011-11-07 06:50:21 51°19.023 2°54.529 49.5 10.4 53 12
2011-11-07 06:50:25 51°19.031 2°54.542 50.1 10.3 48 11.4
2011-11-07 06:50:30 51°19.04 2°54.561 50.4 10.6 51 12
2011-11-07 06:50:36 51°19.051 2°54.583 50.6 10.6 50 12.1
2011-11-07 06:50:41 51°19.06 2°54.601 50 10.4 52 12.8
2011-11-07 06:50:45 51°19.067 2°54.615 49.9 10.3 52 12.8
2011-11-07 06:50:51 51°19.078 2°54.637 51.4 10.7 51 12.6
2011-11-07 06:50:55 51°19.085 2°54.652 51.6 10.6 52 12.5
2011-11-07 06:51:01 51°19.096 2°54.674 51.2 10.2 52 11.9
2011-11-07 06:51:05 51°19.102 2°54.688 51.1 10.3 54 11.8
2011-11-07 06:51:10 51°19.111 2°54.707 52.4 10.5 53 12.4
2011-11-07 06:51:16 51°19.122 2°54.729 51.3 10.4 52 12.8
2011-11-07 06:51:21 51°19.13 2°54.746 51.4 10.4 52 12.5
2011-11-07 06:51:25 51°19.137 2°54.761 51.1 10.2 53 11.4
2011-11-07 06:51:31 51°19.146 2°54.782 52.1 10.1 55 12.4
2011-11-07 06:51:36 51°19.155 2°54.8 52.5 10.1 52 12.7
2011-11-07 06:51:41 51°19.163 2°54.818 51.9 10 54 12.2
2011-11-07 06:51:45 51°19.17 2°54.832 52.8 10.1 54 12.7
2011-11-07 06:51:51 51°19.18 2°54.855 52.3 10.4 55 12.8
2011-11-07 06:51:56 51°19.189 2°54.872 52.1 10.4 53 13.2
2011-11-07 06:52:01 51°19.197 2°54.89 51.6 10.3 54 12.5
2011-11-07 06:52:05 51°19.204 2°54.904 51.6 10 53 13.4
2011-11-07 06:52:11 51°19.214 2°54.926 51.6 10.1 53 12.5
2011-11-07 06:52:16 51°19.222 2°54.943 52.6 9.9 51 11.5
2011-11-07 06:52:21 51°19.231 2°54.961 51.7 9.9 52 11.5
2011-11-07 06:52:25 51°19.238 2°54.975 51.1 10 53 12.3
2011-11-07 06:52:30 51°19.246 2°54.993 51.7 10.3 53 12.5
2011-11-07 06:52:36 51°19.257 2°55.015 51.3 10.3 52 12.7
2011-11-07 06:52:41 51°19.266 2°55.032 50.9 10.2 52 12
2011-11-07 06:52:45 51°19.273 2°55.047 50.9 10.3 53 12.1
2011-11-07 06:52:50 51°19.282 2°55.065 51 10.4 53 12.3
2011-11-07 06:52:56 51°19.292 2°55.088 51.6 10.4 52 12
2011-11-07 06:53:01 51°19.301 2°55.105 51.6 10.4 52 12.5
2011-11-07 06:53:05 51°19.308 2°55.12 51.4 10.4 52 12.5
2011-11-07 06:53:11 51°19.319 2°55.142 51.2 10.4 52 12
2011-11-07 06:53:15 51°19.326 2°55.156 50.5 10.5 51 12.2
2011-11-07 06:53:21 51°19.337 2°55.178 49.8 10.4 53 13.1
2011-11-07 06:53:25 51°19.344 2°55.192 50.4 10.2 52 12.1
2011-11-07 06:53:31 51°19.355 2°55.213 50.9 10.4 52 12.5
2011-11-07 06:53:36 51°19.364 2°55.231 51.1 10.4 51 12.7
2011-11-07 06:53:41 51°19.372 2°55.249 50.2 10.1 53 11.7
2011-11-07 06:53:45 51°19.379 2°55.264 51.7 10.2 54 12.1
2011-11-07 06:53:50 51°19.387 2°55.283 53.1 10.5 54 12.4
2011-11-07 06:53:56 51°19.397 2°55.306 53.4 10.5 54 12.5
2011-11-07 06:54:01 51°19.406 2°55.325 53.6 10.5 56 13
2011-11-07 06:54:05 51°19.412 2°55.34 54.2 10.5 56 12.4
2011-11-07 06:54:11 51°19.422 2°55.364 55.4 10.6 57 12.1
2011-11-07 06:54:15 51°19.428 2°55.379 55.2 10.7 58 12.5
2011-11-07 06:54:21 51°19.437 2°55.404 56.1 10.5 58 12.1
2011-11-07 06:54:25 51°19.442 2°55.42 56.8 10.5 61 12.6
2011-11-07 06:54:31 51°19.451 2°55.445 57.3 10.7 59 12.4
2011-11-07 06:54:36 51°19.459 2°55.465 57.8 10.6 58 12.2
2011-11-07 06:54:41 51°19.466 2°55.486 57.1 10.6 62 12.4
2011-11-07 06:54:45 51°19.472 2°55.501 58.5 10.5 58 12.1
2011-11-07 06:54:51 51°19.481 2°55.525 56 10.5 59 12.3
2011-11-07 06:54:56 51°19.489 2°55.544 55.7 10.5 56 12.2
2011-11-07 06:55:01 51°19.497 2°55.564 55.2 10.6 59 12.4
2011-11-07 06:55:05 51°19.504 2°55.579 56 10.5 57 12.4
2011-11-07 06:55:10 51°19.512 2°55.599 56.2 10.4 58 11.6
2011-11-07 06:55:16 51°19.521 2°55.623 57 10.7 59 12
2011-11-07 06:55:21 51°19.529 2°55.643 57.3 10.7 58 12.4
2011-11-07 06:55:25 51°19.536 2°55.659 56.3 10.5 57 12.1
2011-11-07 06:55:31 51°19.544 2°55.683 56.3 10.6 58 12
2011-11-07 06:55:36 51°19.553 2°55.702 56.7 10.7 56 12.2
2011-11-07 06:55:41 51°19.561 2°55.722 55.4 10.7 58 11.9
2011-11-07 06:55:45 51°19.567 2°55.738 55.5 10.5 56 12.3
2011-11-07 06:55:51 51°19.577 2°55.762 55.7 10.6 57 12.4
2011-11-07 06:55:56 51°19.585 2°55.782 55.8 10.6 57 12.3
2011-11-07 06:56:01 51°19.592 2°55.802 56 10.6 58 11.9
2011-11-07 06:56:05 51°19.598 2°55.819 56.6 10.8 59 12.2
2011-11-07 06:56:10 51°19.606 2°55.838 56.7 10.7 58 12.6
2011-11-07 06:56:16 51°19.616 2°55.862 57.2 10.7 58 12.5
2011-11-07 06:56:21 51°19.624 2°55.882 57 10.7 58 12.1
2011-11-07 06:56:25 51°19.63 2°55.899 56.4 10.7 59 12.5
2011-11-07 06:56:31 51°19.639 2°55.923 56.4 10.8 58 13.1
2011-11-07 06:56:35 51°19.645 2°55.939 56.4 10.6 59 12.8
2011-11-07 06:56:41 51°19.655 2°55.962 56.9 10.5 56 11.7
2011-11-07 06:56:45 51°19.661 2°55.979 56 10.7 58 12.7
2011-11-07 06:56:51 51°19.671 2°56.001 54.8 10.4 56 12.2
2011-11-07 06:56:56 51°19.679 2°56.02 53.8 10.3 56 12.2
2011-11-07 06:57:01 51°19.687 2°56.039 54 10.4 57 11.8
2011-11-07 06:57:05 51°19.694 2°56.054 54.5 10.3 55 12.1
2011-11-07 06:57:11 51°19.704 2°56.078 54.5 10.4 57 12.6
2011-11-07 06:57:16 51°19.712 2°56.096 53.5 10.5 54 12.8
2011-11-07 06:57:21 51°19.721 2°56.115 53.8 10.5 55 12.5
2011-11-07 06:57:25 51°19.727 2°56.131 53.4 10.6 55 11.5
2011-11-07 06:57:31 51°19.737 2°56.154 53.8 10.3 56 11.6
2011-11-07 06:57:35 51°19.744 2°56.169 54.1 10.5 53 12.5
2011-11-07 06:57:41 51°19.754 2°56.192 53.5 10.6 54 12.6
2011-11-07 06:57:45 51°19.76 2°56.208 53.1 10.8 57 12.6
2011-11-07 06:57:51 51°19.77 2°56.231 53.4 10.6 57 12.2
2011-11-07 06:57:56 51°19.778 2°56.25 54.2 10.6 55 12.4
2011-11-07 06:58:01 51°19.787 2°56.27 53.8 10.6 56 11.5
2011-11-07 06:58:05 51°19.792 2°56.286 55 10.8 58 12
2011-11-07 06:58:10 51°19.801 2°56.306 55.2 10.5 57 11.4
2011-11-07 06:58:16 51°19.81 2°56.329 55.4 10.5 56 11.8
2011-11-07 06:58:21 51°19.818 2°56.35 55.9 10.6 59 12
2011-11-07 06:58:25 51°19.825 2°56.365 56.3 10.7 56 12.3
2011-11-07 06:58:31 51°19.834 2°56.389 55.2 10.6 59 12.4
2011-11-07 06:58:35 51°19.839 2°56.405 55.4 10.7 61 13.1
2011-11-07 06:58:41 51°19.849 2°56.429 56.1 10.7 58 13
2011-11-07 06:58:45 51°19.856 2°56.444 55.7 10.6 56 12.8
2011-11-07 06:58:50 51°19.863 2°56.464 55.2 10.4 58 12.4
2011-11-07 06:58:55 51°19.872 2°56.483 55.4 10.5 58 12.9
2011-11-07 06:59:01 51°19.881 2°56.507 55.9 10.5 56 12.6
2011-11-07 06:59:05 51°19.887 2°56.523 55.7 10.5 57 12.3
2011-11-07 06:59:11 51°19.897 2°56.546 55.2 10.4 56 11.5
2011-11-07 06:59:16 51°19.905 2°56.565 55.6 10.4 56 11.6
2011-11-07 06:59:21 51°19.913 2°56.585 55.3 10.4 56 12.9
2011-11-07 06:59:25 51°19.919 2°56.6 54.8 10.4 57 13.3
2011-11-07 06:59:31 51°19.929 2°56.623 54.3 10.6 54 13.2
2011-11-07 06:59:35 51°19.935 2°56.639 54.6 10.6 57 12.9
2011-11-07 06:59:41 51°19.946 2°56.662 54.5 10.6 55 12.2
2011-11-07 06:59:45 51°19.951 2°56.678 55.8 10.6 59 12.9
2011-11-07 06:59:51 51°19.961 2°56.702 55.1 10.4 58 12.3
2011-11-07 06:59:56 51°19.969 2°56.721 55.9 10.3 57 11.7
2011-11-07 07:00:01 51°19.977 2°56.741 56.1 10.4 57 12.1
2011-11-07 07:00:05 51°19.983 2°56.757 56.7 10.5 60 12
2011-11-07 07:00:10 51°19.991 2°56.777 55.9 10.6 57 12.4
2011-11-07 07:00:16 51°20 2°56.801 55.9 10.6 57 12.4
2011-11-07 07:00:21 51°20.008 2°56.821 55.2 10.8 58 12.8
2011-11-07 07:00:25 51°20.015 2°56.836 55.3 10.7 56 13
2011-11-07 07:00:30 51°20.023 2°56.856 55 10.8 57 12.7
2011-11-07 07:00:36 51°20.034 2°56.88 55.3 10.9 54 13
2011-11-07 07:00:41 51°20.042 2°56.9 54.5 10.8 57 13
2011-11-07 07:00:45 51°20.049 2°56.915 54.8 10.7 55 12.2
2011-11-07 07:00:51 51°20.059 2°56.939 54.9 10.9 55 12.5
2011-11-07 07:00:55 51°20.065 2°56.955 54.6 11.1 58 12.9
2011-11-07 07:01:01 51°20.075 2°56.98 55.7 11 57 13.7
2011-11-07 07:01:05 51°20.081 2°56.996 54.9 10.8 58 12.6
2011-11-07 07:01:11 51°20.091 2°57.02 56.7 10.8 56 12.6
2011-11-07 07:01:16 51°20.099 2°57.04 55 10.8 57 12.2
2011-11-07 07:01:21 51°20.108 2°57.06 54.7 11 55 12.1
2011-11-07 07:01:25 51°20.115 2°57.076 53.8 11 56 12.6
2011-11-07 07:01:30 51°20.124 2°57.096 54.6 10.9 57 12.9
2011-11-07 07:01:36 51°20.133 2°57.121 55.2 11 59 12.8
2011-11-07 07:01:41 51°20.142 2°57.141 56.1 11.1 58 12.5
2011-11-07 07:01:45 51°20.148 2°57.158 56.4 10.9 58 12.4
2011-11-07 07:01:51 51°20.157 2°57.182 56.2 10.9 58 12.5
2011-11-07 07:01:56 51°20.166 2°57.202 55.6 10.9 56 12.3
2011-11-07 07:02:01 51°20.173 2°57.223 55.6 11.1 58 13.2
2011-11-07 07:02:05 51°20.18 2°57.239 54.8 11 59 13.3
2011-11-07 07:02:10 51°20.188 2°57.258 55 10.8 57 12.6
2011-11-07 07:02:16 51°20.198 2°57.282 54.9 10.5 55 11.9
2011-11-07 07:02:21 51°20.206 2°57.302 54.9 10.6 54 12.2
2011-11-07 07:02:25 51°20.214 2°57.317 53.1 10.7 54 11.8
2011-11-07 07:02:30 51°20.221 2°57.337 53.4 10.7 58 13
2011-11-07 07:02:36 51°20.231 2°57.361 53.9 10.6 58 13.2
2011-11-07 07:02:41 51°20.239 2°57.379 54.5 10.5 55 12.7
2011-11-07 07:02:45 51°20.246 2°57.395 54.3 10.6 56 12.4
2011-11-07 07:02:49 51°20.252 2°57.411 54.6 10.5 55 12.2
2011-11-07 07:02:55 51°20.262 2°57.434 54.5 10.6 56 12.4
2011-11-07 07:03:01 51°20.272 2°57.457 53.8 10.6 56 12.4
2011-11-07 07:03:05 51°20.278 2°57.473 55.1 10.6 57 12.8
2011-11-07 07:03:11 51°20.288 2°57.496 53.9 10.5 57 12
2011-11-07 07:03:15 51°20.294 2°57.512 55.4 10.6 56 12.2
2011-11-07 07:03:21 51°20.304 2°57.536 55.2 10.5 58 12.2
2011-11-07 07:03:25 51°20.31 2°57.551 56 10.4 59 12.3
2011-11-07 07:03:31 51°20.319 2°57.575 56.5 10.5 56 11.7
2011-11-07 07:03:36 51°20.327 2°57.596 56.1 10.7 59 12.3
2011-11-07 07:03:41 51°20.335 2°57.616 56.5 10.6 57 12.3
2011-11-07 07:03:45 51°20.341 2°57.632 55.6 10.6 59 12.9
2011-11-07 07:03:50 51°20.349 2°57.651 55 10.8 60 13
2011-11-07 07:03:56 51°20.359 2°57.675 56 10.6 55 12.4
2011-11-07 07:04:01 51°20.366 2°57.695 54.5 10.5 59 12.4
2011-11-07 07:04:05 51°20.373 2°57.711 54.8 10.6 56 12.4
2011-11-07 07:04:11 51°20.383 2°57.735 55.1 10.7 56 12.8
2011-11-07 07:04:16 51°20.391 2°57.755 54.7 10.7 59 12.5
2011-11-07 07:04:21 51°20.399 2°57.774 56.5 10.6 56 11.9
2011-11-07 07:04:25 51°20.405 2°57.791 55.9 10.7 58 11.7
2011-11-07 07:04:30 51°20.413 2°57.811 56.9 10.7 56 12
2011-11-07 07:04:36 51°20.423 2°57.834 55.3 10.7 56 12.7
2011-11-07 07:04:41 51°20.43 2°57.854 55 10.6 57 12.4
2011-11-07 07:04:45 51°20.437 2°57.87 54.8 10.7 57 12.2
2011-11-07 07:04:50 51°20.445 2°57.889 55.3 10.5 55 12.2
2011-11-07 07:04:56 51°20.454 2°57.914 55.2 10.7 59 13
2011-11-07 07:05:01 51°20.463 2°57.933 54.9 10.6 56 12.6
2011-11-07 07:05:05 51°20.469 2°57.949 55.5 10.7 59 12.8
2011-11-07 07:05:11 51°20.479 2°57.972 54.8 10.6 55 12
2011-11-07 07:05:15 51°20.484 2°57.989 55.2 10.6 60 12.4
2011-11-07 07:05:21 51°20.494 2°58.012 55.5 10.5 55 12.3
2011-11-07 07:05:25 51°20.5 2°58.028 55.9 10.6 60 12.5
2011-11-07 07:05:31 51°20.509 2°58.052 56.4 10.7 59 12.9
2011-11-07 07:05:36 51°20.517 2°58.072 54.9 10.7 61 12
2011-11-07 07:05:41 51°20.526 2°58.092 57.3 10.6 55 12.1
2011-11-07 07:05:45 51°20.533 2°58.107 54.4 10.6 55 11.9
2011-11-07 07:05:51 51°20.542 2°58.131 54.8 10.8 57 12.6
2011-11-07 07:05:56 51°20.551 2°58.151 54.8 10.8 56 12.3
2011-11-07 07:06:01 51°20.559 2°58.17 54.3 10.6 56 11.4
2011-11-07 07:06:05 51°20.565 2°58.187 54.5 10.8 58 12.4
2011-11-07 07:06:10 51°20.573 2°58.207 55.4 10.8 58 12.7
2011-11-07 07:06:16 51°20.583 2°58.231 54.7 10.8 58 12.4
2011-11-07 07:06:21 51°20.591 2°58.251 54.8 10.7 57 12
2011-11-07 07:06:25 51°20.598 2°58.266 54.3 10.6 56 12
2011-11-07 07:06:30 51°20.606 2°58.286 55.3 10.7 56 12.3
2011-11-07 07:06:36 51°20.616 2°58.31 54.5 10.7 56 12.3
2011-11-07 07:06:41 51°20.624 2°58.33 54.8 10.7 58 12.3
2011-11-07 07:06:45 51°20.631 2°58.345 55 10.6 55 12.5
2011-11-07 07:06:50 51°20.639 2°58.366 55.2 10.9 59 12.3
2011-11-07 07:06:55 51°20.647 2°58.385 55.2 10.8 53 12.2
2011-11-07 07:07:01 51°20.657 2°58.41 53.8 10.9 59 12.8
2011-11-07 07:07:05 51°20.664 2°58.425 54 10.6 54 12.6
2011-11-07 07:07:11 51°20.674 2°58.448 53.4 10.8 57 12.3
2011-11-07 07:07:15 51°20.681 2°58.464 53.8 10.9 56 13
2011-11-07 07:07:21 51°20.691 2°58.488 54.1 10.8 58 12.2
2011-11-07 07:07:25 51°20.697 2°58.504 55.2 10.8 57 12.6
2011-11-07 07:07:30 51°20.705 2°58.524 55 10.7 60 12.2
2011-11-07 07:07:35 51°20.713 2°58.544 56.3 10.6 59 12.2
2011-11-07 07:07:41 51°20.722 2°58.568 55.6 10.6 59 11.8
2011-11-07 07:07:45 51°20.729 2°58.584 56.9 10.7 56 12
2011-11-07 07:07:51 51°20.739 2°58.607 54.7 10.5 54 11.9
2011-11-07 07:07:56 51°20.747 2°58.627 54.1 10.6 58 12.1
2011-11-07 07:08:01 51°20.755 2°58.647 55.6 10.8 57 12.7
2011-11-07 07:08:05 51°20.762 2°58.663 55.3 10.7 56 12.1
2011-11-07 07:08:11 51°20.771 2°58.687 56 10.6 56 11.8
2011-11-07 07:08:15 51°20.777 2°58.703 55.5 10.6 58 12.1
2011-11-07 07:08:21 51°20.786 2°58.727 55.8 10.8 58 12.5
2011-11-07 07:08:25 51°20.793 2°58.743 55.5 10.6 58 12.6
2011-11-07 07:08:30 51°20.801 2°58.763 56 10.6 57 12.2
2011-11-07 07:08:36 51°20.81 2°58.787 56 10.6 59 11.8
2011-11-07 07:08:41 51°20.817 2°58.807 56.7 10.7 58 12.5
2011-11-07 07:08:45 51°20.824 2°58.823 56.1 10.6 60 12.4
2011-11-07 07:08:50 51°20.832 2°58.843 57.2 10.7 57 12
2011-11-07 07:08:56 51°20.841 2°58.868 56.8 10.7 59 12.1
2011-11-07 07:09:01 51°20.849 2°58.888 56.4 10.8 57 12.2
2011-11-07 07:09:05 51°20.855 2°58.904 56 10.7 56 12.2
2011-11-07 07:09:10 51°20.864 2°58.923 54.6 10.7 57 12
2011-11-07 07:09:15 51°20.872 2°58.944 55.7 10.8 57 12.1
2011-11-07 07:09:21 51°20.881 2°58.967 55.2 10.6 56 11.4
2011-11-07 07:09:25 51°20.887 2°58.985 57.1 10.9 61 12.3
2011-11-07 07:09:31 51°20.897 2°59.007 55.8 10.5 55 11.4
2011-11-07 07:09:35 51°20.902 2°59.024 55.2 10.5 59 11.6
2011-11-07 07:09:41 51°20.913 2°59.047 55.7 10.7 56 11.9
2011-11-07 07:09:45 51°20.919 2°59.063 55.2 10.8 57 11.9
2011-11-07 07:09:51 51°20.93 2°59.087 55 10.8 55 12.3
2011-11-07 07:09:56 51°20.937 2°59.108 54.9 10.8 59 12.3
2011-11-07 07:10:01 51°20.946 2°59.127 56 10.8 54 12
2011-11-07 07:10:05 51°20.952 2°59.144 54.6 10.9 57 12.2
2011-11-07 07:10:11 51°20.963 2°59.167 55 10.8 55 12.2
2011-11-07 07:10:16 51°20.97 2°59.187 54.2 10.8 58 12.5
2011-11-07 07:10:21 51°20.979 2°59.207 54.6 10.8 57 12.1
2011-11-07 07:10:25 51°20.985 2°59.223 55.3 10.9 57 12.2
2011-11-07 07:10:30 51°20.993 2°59.244 55.5 10.9 59 13
2011-11-07 07:10:36 51°21.003 2°59.268 55.7 10.8 60 12.1
2011-11-07 07:10:41 51°21.011 2°59.288 56.3 10.7 57 12
2011-11-07 07:10:45 51°21.018 2°59.304 55.2 10.7 57 12.1
2011-11-07 07:10:50 51°21.026 2°59.324 56.6 10.7 55 11.7
2011-11-07 07:10:56 51°21.036 2°59.348 55.1 10.7 56 11.2
2011-11-07 07:11:01 51°21.043 2°59.369 55.5 10.8 59 11.7
2011-11-07 07:11:05 51°21.05 2°59.384 55.7 10.8 55 11.7
2011-11-07 07:11:10 51°21.057 2°59.405 56.4 10.6 58 11.7
2011-11-07 07:11:15 51°21.065 2°59.425 56 10.8 59 12.5
2011-11-07 07:11:21 51°21.075 2°59.449 56.7 10.7 56 12.6
2011-11-07 07:11:25 51°21.081 2°59.465 55.5 10.8 59 12.6
2011-11-07 07:11:31 51°21.091 2°59.489 56.5 10.8 56 12.3
2011-11-07 07:11:35 51°21.098 2°59.505 55.2 10.7 56 12
2011-11-07 07:11:41 51°21.107 2°59.529 55.3 10.8 59 11.9
2011-11-07 07:11:45 51°21.114 2°59.544 55.6 10.7 58 12.2
2011-11-07 07:11:50 51°21.121 2°59.565 56.8 10.6 55 12
2011-11-07 07:11:55 51°21.13 2°59.585 55.5 10.7 56 12.6
2011-11-07 07:12:01 51°21.14 2°59.607 54 10.7 56 11.8
2011-11-07 07:12:05 51°21.147 2°59.624 54.7 10.9 56 12.3
2011-11-07 07:12:11 51°21.157 2°59.647 54.3 10.8 55 12.4
2011-11-07 07:12:16 51°21.165 2°59.667 54 10.7 56 11.9
2011-11-07 07:12:21 51°21.174 2°59.687 54.7 10.9 55 12.4
2011-11-07 07:12:25 51°21.181 2°59.702 53.4 10.9 55 11.9
2011-11-07 07:12:31 51°21.191 2°59.727 54.7 10.9 56 12
2011-11-07 07:12:35 51°21.197 2°59.743 54.6 10.7 57 12.2
2011-11-07 07:12:41 51°21.207 2°59.767 55 10.9 58 11.8
2011-11-07 07:12:45 51°21.214 2°59.782 55.7 10.8 55 12.5
2011-11-07 07:12:51 51°21.223 2°59.808 54.5 10.8 62 13.3
2011-11-07 07:12:56 51°21.231 2°59.827 55.5 10.8 57 12.6
2011-11-07 07:13:01 51°21.24 2°59.847 55.5 10.8 55 11.8
2011-11-07 07:13:05 51°21.246 2°59.863 54.5 10.8 58 12.3
2011-11-07 07:13:10 51°21.255 2°59.883 54.9 10.9 57 12.1
2011-11-07 07:13:16 51°21.264 2°59.907 54.9 10.8 55 11.6
2011-11-07 07:13:21 51°21.272 2°59.927 54.9 10.8 58 11.4
2011-11-07 07:13:25 51°21.278 2°59.945 57.3 11 60 12.7
2011-11-07 07:13:30 51°21.287 2°59.964 54.8 11 59 12.5
2011-11-07 07:13:35 51°21.295 2°59.985 56 11.1 58 12.4
2011-11-07 07:13:41 51°21.305 3°0.01 55.8 11.1 57 12.4
2011-11-07 07:13:45 51°21.312 3°0.026 56 11 58 12.1
2011-11-07 07:13:51 51°21.321 3°0.05 56 10.9 57 11.9
2011-11-07 07:13:55 51°21.328 3°0.066 55.2 10.7 56 11.4
2011-11-07 07:14:01 51°21.337 3°0.091 55.5 10.9 58 12.1
2011-11-07 07:14:05 51°21.344 3°0.107 56 11.1 57 12.6
2011-11-07 07:14:11 51°21.355 3°0.131 55.2 11 55 12
2011-11-07 07:14:16 51°21.363 3°0.152 54.9 11 56 12.3
2011-11-07 07:14:21 51°21.371 3°0.172 55 11.1 56 12.5
2011-11-07 07:14:25 51°21.378 3°0.189 54.9 11.1 58 12.2
2011-11-07 07:14:31 51°21.388 3°0.213 54.9 10.9 57 11.9
2011-11-07 07:14:36 51°21.396 3°0.233 55.3 10.9 57 11.6
2011-11-07 07:14:41 51°21.404 3°0.254 55.3 11 58 12
2011-11-07 07:14:45 51°21.41 3°0.271 55.9 11.1 60 13.3
2011-11-07 07:14:51 51°21.42 3°0.295 56.4 10.7 57 12.3
2011-11-07 07:14:56 51°21.428 3°0.315 55.7 10.8 57 12.3
2011-11-07 07:15:01 51°21.437 3°0.334 54.5 11 57 12.1
2011-11-07 07:15:05 51°21.444 3°0.35 54.7 10.9 54 11.9
2011-11-07 07:15:10 51°21.452 3°0.37 53.5 10.8 57 11.6
2011-11-07 07:15:16 51°21.462 3°0.394 54.7 10.9 55 12
2011-11-07 07:15:21 51°21.471 3°0.414 54.3 10.8 56 11.5
2011-11-07 07:15:25 51°21.478 3°0.43 54.5 10.9 55 12.3
2011-11-07 07:15:30 51°21.486 3°0.45 53.9 10.9 57 12.4
2011-11-07 07:15:35 51°21.494 3°0.47 54.5 11 56 12.2
2011-11-07 07:15:41 51°21.504 3°0.495 55.2 10.8 58 12
2011-11-07 07:15:45 51°21.51 3°0.511 55.5 10.8 58 11.7
2011-11-07 07:15:49 51°21.517 3°0.528 56.1 10.9 60 12.2
2011-11-07 07:15:55 51°21.526 3°0.552 57.3 10.9 59 12.4
2011-11-07 07:16:01 51°21.535 3°0.577 56.7 10.9 59 12.7
2011-11-07 07:16:05 51°21.541 3°0.594 57 10.8 59 11.9
2011-11-07 07:16:11 51°21.551 3°0.618 56.7 10.9 60 11.9
2011-11-07 07:16:15 51°21.557 3°0.635 57.1 10.9 59 11.6
2011-11-07 07:16:21 51°21.566 3°0.66 57.4 10.9 61 11.5
2011-11-07 07:16:25 51°21.572 3°0.677 57.8 10.8 58 11.7
2011-11-07 07:16:31 51°21.581 3°0.702 57 11 59 11.9
2011-11-07 07:16:36 51°21.589 3°0.723 56.9 11.1 57 12.2
2011-11-07 07:16:41 51°21.598 3°0.743 55.9 11 57 12.2
2011-11-07 07:16:45 51°21.604 3°0.76 55.9 11 60 12.1
2011-11-07 07:16:51 51°21.614 3°0.784 55.3 11 57 12.4
2011-11-07 07:16:56 51°21.623 3°0.804 54.6 11 56 12
2011-11-07 07:17:01 51°21.631 3°0.824 54 10.8 55 11.2
2011-11-07 07:17:05 51°21.637 3°0.841 53.8 10.8 58 11.9
2011-11-07 07:17:10 51°21.646 3°0.861 55.3 10.9 56 12.5
2011-11-07 07:17:16 51°21.656 3°0.885 55.1 10.9 55 12.1
2011-11-07 07:17:21 51°21.665 3°0.904 54.4 10.8 55 11.8
2011-11-07 07:17:25 51°21.671 3°0.921 54.5 11 57 11.6
2011-11-07 07:17:30 51°21.68 3°0.941 55.9 10.7 55 11.8
2011-11-07 07:17:36 51°21.689 3°0.965 55.4 10.8 58 11.6
2011-11-07 07:17:41 51°21.698 3°0.985 56 10.9 53 12.1
2011-11-07 07:17:45 51°21.705 3°1.001 54.2 10.7 56 11.8
2011-11-07 07:17:50 51°21.713 3°1.021 54.8 10.9 56 12.6
2011-11-07 07:17:55 51°21.721 3°1.041 54.1 11 56 13.1
2011-11-07 07:18:01 51°21.731 3°1.065 53.8 10.9 58 13.4
2011-11-07 07:18:05 51°21.738 3°1.08 54.3 10.7 54 12.4
2011-11-07 07:18:11 51°21.748 3°1.104 54.3 10.7 56 12.5
2011-11-07 07:18:15 51°21.755 3°1.119 53.7 10.7 55 12
2011-11-07 07:18:21 51°21.765 3°1.143 54.3 10.8 58 12.6
2011-11-07 07:18:25 51°21.772 3°1.158 54.6 10.6 54 12.5
2011-11-07 07:18:31 51°21.781 3°1.182 54.4 10.7 57 12.2
2011-11-07 07:18:36 51°21.79 3°1.201 54.5 10.8 54 12.5
2011-11-07 07:18:41 51°21.798 3°1.221 54.1 11 57 12.8
2011-11-07 07:18:45 51°21.806 3°1.237 54.5 10.9 55 13.2
2011-11-07 07:18:51 51°21.815 3°1.261 54.5 10.9 57 12.5
2011-11-07 07:18:56 51°21.823 3°1.281 54.9 10.8 57 12.7
2011-11-07 07:19:01 51°21.831 3°1.301 55.2 10.9 59 12.1
2011-11-07 07:19:05 51°21.838 3°1.317 56.8 10.8 58 12.5
2011-11-07 07:19:11 51°21.847 3°1.341 55.9 10.7 59 12.1
2011-11-07 07:19:16 51°21.855 3°1.362 57 10.8 58 11.5
2011-11-07 07:19:21 51°21.863 3°1.383 56.6 10.9 59 12.1
2011-11-07 07:19:25 51°21.869 3°1.399 56.8 10.8 59 12.5
2011-11-07 07:19:30 51°21.876 3°1.42 57.6 10.8 61 12.7
2011-11-07 07:19:36 51°21.886 3°1.444 56.7 10.8 58 12.4
2011-11-07 07:19:41 51°21.894 3°1.465 56.8 11.1 60 12.9
2011-11-07 07:19:45 51°21.901 3°1.48 55.7 11 55 12.3
2011-11-07 07:19:50 51°21.909 3°1.501 56.4 10.8 57 11.9
2011-11-07 07:19:56 51°21.919 3°1.525 56 10.8 56 12.2
2011-11-07 07:20:01 51°21.926 3°1.545 55.6 10.9 58 12.6
2011-11-07 07:20:05 51°21.934 3°1.561 55 11 54 12.6
2011-11-07 07:20:10 51°21.942 3°1.581 55.2 10.9 56 12.2
2011-11-07 07:20:15 51°21.951 3°1.601 54.9 11.1 56 12.1
2011-11-07 07:20:21 51°21.961 3°1.624 54.5 10.9 54 11.9
2011-11-07 07:20:25 51°21.967 3°1.641 54 10.9 58 12
2011-11-07 07:20:31 51°21.977 3°1.665 55 10.8 58 12
2011-11-07 07:20:35 51°21.984 3°1.68 55.2 10.8 54 12.5
2011-11-07 07:20:41 51°21.994 3°1.704 53.8 10.8 56 12.4
2011-11-07 07:20:45 51°22 3°1.72 53.9 10.6 57 12.2
2011-11-07 07:20:50 51°22.009 3°1.739 54.7 10.7 56 11.9
2011-11-07 07:20:55 51°22.017 3°1.759 54.3 10.9 55 12.2
2011-11-07 07:21:01 51°22.028 3°1.783 54.1 10.9 55 12.1
2011-11-07 07:21:05 51°22.034 3°1.799 54.3 10.8 56 12.3
2011-11-07 07:21:11 51°22.045 3°1.822 53.9 10.9 55 12.1
2011-11-07 07:21:16 51°22.053 3°1.842 54.1 11 55 12.7
2011-11-07 07:21:21 51°22.062 3°1.862 52.5 10.8 55 13
2011-11-07 07:21:25 51°22.068 3°1.878 53.8 10.8 57 12.8
2011-11-07 07:21:31 51°22.079 3°1.902 54.1 10.8 57 12.8
2011-11-07 07:21:36 51°22.087 3°1.92 54.2 10.8 55 11.7
2011-11-07 07:21:41 51°22.095 3°1.941 55.2 10.7 55 12
2011-11-07 07:21:45 51°22.102 3°1.956 54 10.7 55 12.3
2011-11-07 07:21:50 51°22.11 3°1.977 55.3 10.8 58 12.3
2011-11-07 07:21:56 51°22.12 3°2 55.1 10.7 56 11.7
2011-11-07 07:22:01 51°22.127 3°2.021 56.6 10.8 62 12.8
2011-11-07 07:22:05 51°22.134 3°2.036 56.5 10.6 56 12
2011-11-07 07:22:10 51°22.142 3°2.056 55.3 10.7 58 11.9
2011-11-07 07:22:16 51°22.152 3°2.08 54.9 11 57 12.6
2011-11-07 07:22:21 51°22.16 3°2.1 55 10.8 57 12.5
2011-11-07 07:22:25 51°22.167 3°2.115 55.2 10.6 56 11.2
2011-11-07 07:22:30 51°22.174 3°2.135 55.4 10.6 57 11.6
2011-11-07 07:22:35 51°22.182 3°2.156 55.6 10.9 61 11.5
2011-11-07 07:22:41 51°22.191 3°2.18 56.6 10.6 58 12.6
2011-11-07 07:22:45 51°22.197 3°2.196 56.9 10.4 59 12
2011-11-07 07:22:51 51°22.207 3°2.219 56.5 10.5 56 12
2011-11-07 07:22:55 51°22.213 3°2.236 55.3 10.7 58 11.6
2011-11-07 07:23:01 51°22.223 3°2.26 56.7 10.8 57 12.4
2011-11-07 07:23:05 51°22.229 3°2.276 55.8 10.5 57 12.5
2011-11-07 07:23:10 51°22.237 3°2.295 55.6 10.7 59 12.7
2011-11-07 07:23:15 51°22.245 3°2.315 54.8 11 58 12.4
2011-11-07 07:23:21 51°22.255 3°2.339 56.1 10.7 58 11.7
2011-11-07 07:23:25 51°22.261 3°2.356 56.2 10.5 56 11.4
2011-11-07 07:23:31 51°22.27 3°2.379 56 10.4 57 11.9
2011-11-07 07:23:36 51°22.278 3°2.398 55 10.7 56 11.7
2011-11-07 07:23:41 51°22.286 3°2.419 55.1 10.9 57 12
2011-11-07 07:23:45 51°22.293 3°2.435 55.3 10.8 57 12.5
2011-11-07 07:23:51 51°22.303 3°2.458 55.3 10.6 55 11.9
2011-11-07 07:23:55 51°22.309 3°2.475 54.9 10.8 59 11.7
2011-11-07 07:24:01 51°22.319 3°2.499 56 10.9 58 11.5
2011-11-07 07:24:05 51°22.325 3°2.516 56.6 10.7 58 11.5
2011-11-07 07:24:10 51°22.333 3°2.536 56.8 10.5 58 11.5
2011-11-07 07:24:16 51°22.343 3°2.559 56.4 10.7 56 11.9
2011-11-07 07:24:21 51°22.35 3°2.58 55.8 11 59 12.7
2011-11-07 07:24:25 51°22.358 3°2.596 55.9 10.9 56 12.1
2011-11-07 07:24:30 51°22.365 3°2.616 55.6 10.6 57 11.5
2011-11-07 07:24:36 51°22.375 3°2.639 55.2 10.7 56 11.5
2011-11-07 07:24:41 51°22.384 3°2.66 54.7 11 56 11.8
2011-11-07 07:24:45 51°22.39 3°2.676 55.1 10.9 56 11.9
2011-11-07 07:24:50 51°22.399 3°2.696 54.3 10.6 56 11.6
2011-11-07 07:24:55 51°22.407 3°2.715 53.8 10.8 58 12.3
2011-11-07 07:25:01 51°22.417 3°2.739 54.2 10.7 56 11.8
2011-11-07 07:25:05 51°22.424 3°2.755 53.8 10.6 56 11.7
2011-11-07 07:25:11 51°22.433 3°2.778 55.5 10.3 54 10.6
2011-11-07 07:25:15 51°22.439 3°2.794 54.8 10.3 54 11.2
2011-11-07 07:25:21 51°22.449 3°2.817 54.7 10.5 55 12.1
2011-11-07 07:25:25 51°22.456 3°2.833 53.8 10.6 55 11.9
2011-11-07 07:25:31 51°22.466 3°2.856 53.6 10.6 56 11.7
2011-11-07 07:25:36 51°22.475 3°2.875 53.6 10.6 54 11.1
2011-11-07 07:25:41 51°22.483 3°2.895 53.9 10.8 56 11.4
2011-11-07 07:25:45 51°22.49 3°2.911 54.5 10.8 57 12.3
2011-11-07 07:25:51 51°22.499 3°2.935 54.8 10.7 58 11.5
2011-11-07 07:25:56 51°22.507 3°2.955 56.1 10.5 57 10.9
2011-11-07 07:26:01 51°22.515 3°2.976 55.9 10.8 59 11.8
2011-11-07 07:26:05 51°22.521 3°2.992 56.4 11 59 12.7
2011-11-07 07:26:11 51°22.531 3°3.017 55.9 11 59 12.8
2011-11-07 07:26:16 51°22.538 3°3.037 56.7 11 60 13.1
2011-11-07 07:26:21 51°22.546 3°3.057 57 10.8 58 12.2
2011-11-07 07:26:25 51°22.552 3°3.074 55.9 10.9 59 12.2
2011-11-07 07:26:30 51°22.56 3°3.095 56.7 10.8 57 11.7
2011-11-07 07:26:36 51°22.57 3°3.119 56.2 10.9 58 12.4
2011-11-07 07:26:41 51°22.578 3°3.14 56.4 10.9 58 12.3
2011-11-07 07:26:45 51°22.584 3°3.156 56 10.9 57 11.2
2011-11-07 07:26:50 51°22.592 3°3.177 56.3 11 59 10.3
2011-11-07 07:26:55 51°22.6 3°3.197 56.3 11 57 9.9
2011-11-07 07:27:01 51°22.609 3°3.222 56.4 10.8 58 11
2011-11-07 07:27:05 51°22.616 3°3.238 56 10.8 59 11.4
2011-11-07 07:27:11 51°22.625 3°3.262 56.7 10.6 57 11.3
2011-11-07 07:27:15 51°22.631 3°3.278 56.2 10.7 57 11.8
2011-11-07 07:27:21 51°22.641 3°3.303 55.8 10.8 58 12.2
2011-11-07 07:27:25 51°22.648 3°3.318 55.3 10.9 56 11.8
2011-11-07 07:27:30 51°22.656 3°3.339 55.9 11 59 12.9
2011-11-07 07:27:35 51°22.664 3°3.359 55.5 10.9 59 13
2011-11-07 07:27:41 51°22.674 3°3.384 55.6 10.9 57 12.5
2011-11-07 07:27:45 51°22.68 3°3.4 55.3 11 57 12.1
2011-11-07 07:27:51 51°22.69 3°3.424 55.7 10.8 56 12.2
2011-11-07 07:27:56 51°22.698 3°3.444 55.6 10.8 57 12.4
2011-11-07 07:28:01 51°22.707 3°3.465 55 11 56 12.4
2011-11-07 07:28:05 51°22.713 3°3.482 55.3 11.2 58 12.2
2011-11-07 07:28:11 51°22.724 3°3.505 55 10.8 53 11.7
2011-11-07 07:28:15 51°22.731 3°3.522 54.2 11 58 12.2
2011-11-07 07:28:21 51°22.741 3°3.545 54.5 10.8 54 11.9
2011-11-07 07:28:25 51°22.747 3°3.562 53.2 10.9 60 11.3
2011-11-07 07:28:30 51°22.756 3°3.581 55.4 10.9 55 11.7
2011-11-07 07:28:36 51°22.766 3°3.605 54.3 10.7 56 10.6
2011-11-07 07:28:41 51°22.774 3°3.625 54.2 10.8 55 11.7
2011-11-07 07:28:45 51°22.781 3°3.64 53.9 10.7 55 12.2
2011-11-07 07:28:50 51°22.789 3°3.66 53.8 11 55 12.2
2011-11-07 07:28:56 51°22.8 3°3.685 54.1 11 56 12.2
2011-11-07 07:29:01 51°22.808 3°3.705 53.9 10.9 56 11.7
2011-11-07 07:29:05 51°22.815 3°3.72 54.1 11 54 11
2011-11-07 07:29:10 51°22.824 3°3.741 53 10.9 55 11.3